Terminal Aerodrome Forecast
Issued by NWS

Home | Current Version | Previous Version | Text Only | Print | Product List | Glossary On
Versions: 1 2 3 4 5 6 7 8 9 10 11 12 13 14 15 16 17 18 19 20
889
FTUS45 KTFX 102106 AAB
TAFBZN
TAF AMD
KBZN 102106Z 1021/1118 VRB03KT 5SM -SN BR SCT015 OVC025
      WS020/28035KT
      TEMPO 1021/1024 1SM -SN BR BKN012
     FM110100 29011KT P6SM SCT035 BKN080 WS020/28035KT
     FM110400 VRB05KT P6SM SCT080 BKN150
     FM111200 VRB05KT P6SM VCSH SCT040 BKN070=

USA.gov is the U.S. government's official web portal to all federal, state and local government web resources and services.